Mildred, MT

7:45 PM MDT on May 28, 2017 (GMT -0600)
MPNHM8 | | Change Station
Active Advisory: Fire Weather Warning

Elev 2627 ft 46.78 °N, 104.58 °W | Updated 11 days ago

Scattered Clouds
Scattered Clouds
59.0 °F
Feels Like 59.0 °F
N
15.0
Wind Variable Wind from ENE
Gusts 25.0 mph

Today
High -- | Low -- °F
--% Chance of Precip.
Yesterday
High -- | Low -- °F
Precip. -- in
Pressure 30.01 in
Visibility 10.0 miles
Clouds Scattered Clouds 9500 ft
Dew Point 40.0 °F
Humidity 49%
Rainfall in
Snow Depth Not available.
5:10 AM 8:41 PM
Waxing Crescent, 15% visible
METAR KGDV 290056Z AUTO 33020G25KT 10SM SCT095 21/M02 A3003 RMK AO2 PK WND 33029/0023 SLP163 T02061022
Pressure 30.01 in
Visibility 10.0 miles
Clouds Scattered Clouds 9500 ft
Dew Point 40.0 °F
Humidity 49%
Rainfall in
Snow Depth Not available.
5:10 AM 8:41 PM
Waxing Crescent, 15% visible
METAR KGDV 290056Z AUTO 33020G25KT 10SM SCT095 21/M02 A3003 RMK AO2 PK WND 33029/0023 SLP163 T02061022

Get Your Daily Forecast Email!

Thanks for signing up!

Be on the lookout for a verification email in your inbox.

You'll start receiving severe weather alerts in your inbox..

×

10-Day Weather Forecast

Almanac

Astronomy

May. 28, 2017 Rise Set
Actual Time
Civil Twilight
Nautical Twilight
Astronomical Twilight
Moon
Length of Visible Light
Length of Day
Tomorrow will be .
, % of the Moon is Illuminated

Today's Extremes

State Highs State Lows

Community

WunderPhotos

Category 6

Welcome to Category 6. This is the collective home for Weather Underground's featured writeups by Dr. Jeff Masters (right), Bob Henson (left), Chris Burt, and other regular contributors.

Nearby

Air Quality

  Air Quality AQ Index Pollutant
Not available.

Snow Depth

Station Depth Elevation

Earthquake Activity

City Distance Mag. Time & Date
Minimum magnitude displayed is 2.5.

Coastal Water Temperatures

Place Temperature

Stations

Nearby Weather Stations

Station Location Temp. Windchill Dew Point Humidity Wind Precip. Elev Updated Type
                   

Watches & Warnings

Fire Weather Warning
Issued: 7:01 PM MDT May. 28, 2017 – National Weather Service

... Red flag warning has been extended and now in effect until 9
PM MDT this evening for strong winds and low relative humidity for
fire weather zones 120... 122... 134... 136 and 137...

* affected area... fire weather zones 120... 122... 134... 136 and
137.

* Timing... the red flag warning has been extended until 9 PM this
evening due to continued windy and dry conditions.

* Winds... north northwest 15 to 25 mph with gusts up to 35 mph.

* Relative humidity... as low as 16 percent.

Precautionary/preparedness actions...

Please advise the appropriate officials or fire crews in these
areas of this red flag warning.



Http://www.Weather.Gov/Glasgow